Tiempo atmosférico en la estación meteorológica de Morón De Almazán , Soria (978 m.)



Fecha
DESCASC
Temp. máxima en grados centígrados (hora)
DESCASC
Temp. mínima en grados centígrados (hora)
DESCASC
Temp. media en grados centígrados
DESCASC
Racha de viento máxima en m/sg (hora)
DESCASC
Velocidad máxima media en intervalos de 10 minutos(hora)
DESCASC
Precipitaciones diarias en mm
DESCASC
Precipitaciones de 00:00 a 06:00 en mm
DESCASC
Precipitaciones de 06:00 a 12:00 en mm
DESCASC
Precipitaciones de 12:00 a 18:00 en mm
DESCASC
Precipitaciones de 18:00 a 24:00 en mm
DESCASC
15-08-2019 31.7 (18:10) 9.2 (06:30) 20.5 12.5 (18:50) 7.78 (19:20) 0 0 0 0 0
14-08-2019 30.5 (17:50) 3.9 (00:00) 17.2 9.72 (17:20) 6.39 (18:20) 0 0 0 0 0
13-08-2019 26.8 (18:30) 8.3 (00:00) 17.5 8.89 (00:40) 6.11 (20:20) 0 0 0 0 0
12-08-2019 23.6 (16:30) 6.5 (00:00) 15.1 15.83 (22:00) 10 (22:40) 0 0 0 0 0
11-08-2019 28.2 (15:50) 13.4 (00:00) 20.8 9.72 (16:50) 6.67 (19:10) 0 0 0 0 0
10-08-2019 27.6 (18:50) 9.7 (00:00) 18.7 8.89 (19:40) 5 (19:40) 0 0 0 0 0
09-08-2019 31 (16:50) 13 (00:00) 22 13.33 (10:50) 8.33 (20:20) 0 0 0 0 0
08-08-2019 32.1 (16:40) 10.6 (00:00) 21.3 11.67 (19:40) 6.67 (19:00) 0 0 0 0 0
07-08-2019 27.7 (13:00) 15.5 (00:00) 21.6 12.22 (18:40) 6.11 (18:20) 0.2 0 0 0.2 0
06-08-2019 33.4 (17:00) 10.9 (00:00) 22.2 10.28 (17:20) 6.39 (18:30) 0 0 0 0 0
05-08-2019 33.9 (17:00) 10.7 (00:00) 22.3 10 (15:10) 5.28 (15:10) 0 0 0 0 0
04-08-2019 33.5 (17:50) 10.1 (00:00) 21.8 11.94 (15:00) 6.67 (15:00) 0 0 0 0 0
03-08-2019 34.4 (17:40) 10.7 (00:00) 22.6 10.56 (14:20) 5 (16:30) 0 0 0 0 0
02-08-2019 33.6 (19:30) 12.2 (00:00) 22.9 10.56 (19:50) 6.94 (19:50) 0 0 0 0 0
01-08-2019 31.7 (17:00) 16.6 (00:00) 24.2 12.5 (19:40) 7.22 (19:40) 0.4 0 0 0 0.4
31-07-2019 30.2 (17:30) 9.3 (00:00) 19.8 10.83 (19:10) 6.67 (22:40) 0 0 0 0 0
30-07-2019 28 (18:10) 9.3 (00:00) 18.7 11.11 (21:30) 7.22 (19:40) 0 0 0 0 0
29-07-2019 31 (17:10) 6.8 (00:00) 18.9 10 (15:10) 6.39 (20:00) 0 0 0 0 0
28-07-2019 27.4 (19:00) 5.4 (00:00) 16.4 8.61 (17:10) 5.28 (17:50) 0 0 0 0 0
27-07-2019 22.7 (16:50) 12 (00:00) 17.4 16.11 (17:30) 10 (17:30) 0.2 0 0.2 0 0
26-07-2019 29.2 (16:00) 15.6 (00:00) 22.4 11.67 (17:50) 6.94 (17:50) 0.4 0 0.4 0 0
25-07-2019 34 (16:50) 14.9 (00:00) 24.4 11.94 (17:30) 6.11 (13:40) 0 0 0 0 0
24-07-2019 35.6 (17:10) 15.1 (00:00) 25.3 15.28 (18:50) 6.11 (16:50) 0 0 0 0 0
23-07-2019 36.1 (17:30) 13.2 (00:00) 24.6 13.89 (18:30) 7.5 (20:40) 0 0 0 0 0
22-07-2019 37.2 (17:10) 14.9 (00:00) 26.1 12.22 (18:20) 6.67 (18:20) 0.2 0 0 0 0.2
21-07-2019 35.2 (17:10) 17.2 (00:00) 26.2 14.72 (19:00) 8.89 (19:00) 3.4 0 0 0 3.4
20-07-2019 34.9 (17:40) 16.6 (00:00) 25.8 10.83 (16:50) 6.39 (16:20) 0 0 0 0 0
19-07-2019 33.9 (17:20) 10.9 (00:00) 22.4 11.39 (15:50) 5.83 (20:10) 0 0 0 0 0

Gráficas

Temp. máximas Temp. mínimas Temp. medias Precipitaciones Rachas de viento máximas Velocidades máximas media en intervalos de 10 minutos

Datos horarios

Fecha y hora oficial Temperatura (ºC) Velocidad del viento (km/h) Dirección del viento Racha (km/h) Dirección de racha Precipitación (mm) Presión (hPa) Tendencia (hPa) Humedad (%)
2019-08-17 23:00:00 23 5 Noroeste 19 Sudoeste 0 -- -- 25
2019-08-17 22:00:00 24.5 12 Sudoeste 19 Sudoeste 0 -- -- 24
2019-08-17 21:00:00 28.7 10 Sudoeste 33 Sudoeste 0 -- -- 21
2019-08-17 20:00:00 32.3 22 Sur 35 Sudoeste 0 -- -- 19
2019-08-17 19:00:00 33.5 18 Sur 32 Sudoeste 0 -- -- 19
2019-08-17 18:00:00 34.2 17 Sur 32 Sudoeste 0 -- -- 18
2019-08-17 17:00:00 34.2 15 Sudoeste 34 Sur 0 -- -- 20
2019-08-17 16:00:00 33.8 17 Sudoeste 34 Sur 0 -- -- 21
2019-08-17 15:00:00 33.4 10 Sudoeste 36 Sur 0 -- -- 21
2019-08-17 14:00:00 32.9 10 Sur 24 Nordeste 0 -- -- 21
2019-08-17 13:00:00 30.7 10 Sudoeste 17 Sudoeste 0 -- -- 25
2019-08-17 12:00:00 28.4 7 Noroeste 17 Oeste 0 -- -- 28
2019-08-17 11:00:00 25.1 10 Oeste 19 Oeste 0 -- -- 34
2019-08-17 10:00:00 21.8 5 Oeste 7 Oeste 0 -- -- 46
2019-08-17 09:00:00 16.8 2 Noroeste 4 Noroeste 0 -- -- 59
2019-08-17 08:00:00 11.5 3 Este 5 Nordeste 0 -- -- 74
2019-08-17 07:00:00 10.8 3 Este 5 Nordeste 0 -- -- 75
2019-08-17 06:00:00 11.4 3 Este 7 Nordeste 0 -- -- 75
2019-08-17 05:00:00 11.7 0 Calma 6 Oeste 0 -- -- 71
2019-08-17 04:00:00 12.6 5 Este 9 Este 0 -- -- 71
2019-08-17 03:00:00 13.6 4 Este 6 Este 0 -- -- 64
2019-08-17 02:00:00 14.9 3 Nordeste 5 Este 0 -- -- 60
2019-08-17 01:00:00 17 3 Este 6 Oeste 0 -- -- 53
2019-08-17 00:00:00 18.8 6 Noroeste 9 Oeste 0 -- -- 49
2019-08-16 23:00:00 23.4 6 Sudeste 14 Este 0 -- -- 39
2019-08-16 22:00:00 23.7 4 Este 10 Noroeste 0 -- -- 38
2019-08-16 21:00:00 28.4 9 Noroeste 21 Oeste 0 -- -- 28
2019-08-16 20:00:00 32.8 13 Oeste 23 Noroeste 0 -- -- 22
2019-08-16 19:00:00 32.3 12 Oeste 24 Noroeste 0 -- -- 24
2019-08-16 18:00:00 33.9 12 Oeste 20 Oeste 0 -- -- 25
2019-08-16 17:00:00 33.1 9 Noroeste 25 Sudoeste 0 -- -- 26
2019-08-16 16:00:00 32.5 15 Sudoeste 28 Oeste 0 -- -- 26
2019-08-16 15:00:00 33.1 11 Oeste 32 Oeste 0 -- -- 25
2019-08-16 14:00:00 30.9 8 Nordeste 18 Sudeste 0 -- -- 32
2019-08-16 13:00:00 30.9 4 Sur 17 Sudeste 0 -- -- 34
2019-08-16 12:00:00 27.8 5 Sudeste 12 Sudeste 0 -- -- 40
2019-08-16 11:00:00 25.1 8 Este 14 Sudeste 0 -- -- 45
2019-08-16 10:00:00 21.6 3 Sudeste 8 Sudeste 0 -- -- 50
2019-08-16 09:00:00 17.1 0 Calma 3 Sudeste 0 -- -- 63
2019-08-16 08:00:00 11.3 0 Calma 3 Sudeste 0 -- -- 81
2019-08-16 07:00:00 10.8 0 Calma 6 Este 0 -- -- 82
2019-08-16 06:00:00 11.7 4 Nordeste 5 Nordeste 0 -- -- 81
2019-08-16 05:00:00 12 0 Calma 5 Este 0 -- -- 78
2019-08-16 04:00:00 12.7 3 Este 5 Este 0 -- -- 76
2019-08-16 03:00:00 13.4 3 Este 7 Este 0 -- -- 73
2019-08-16 02:00:00 15.6 5 Nordeste 11 Este 0 -- -- 65
2019-08-16 01:00:00 17.2 0 Calma 11 Sudeste 0 -- -- 59
2019-08-16 00:00:00 17.8 6 Este 18 Este 0 -- -- 58
2019-08-15 23:00:00 18.3 11 Nordeste 27 Nordeste 0 -- -- 58
2019-08-15 22:00:00 19.5 17 Nordeste 33 Nordeste 0 -- -- 54
2019-08-15 21:00:00 22 20 Nordeste 38 Nordeste 0 -- -- 46
2019-08-15 20:00:00 25.3 25 Nordeste 39 Norte 0 -- -- 40
2019-08-15 19:00:00 28.2 26 Norte 45 Norte 0 -- -- 36
2019-08-15 18:00:00 31.5 16 Oeste 29 Noroeste 0 -- -- 24
2019-08-15 17:00:00 31.2 17 Oeste 33 Oeste 0 -- -- 22
2019-08-15 16:00:00 29.9 17 Oeste 32 Oeste 0 -- -- 27
2019-08-15 15:00:00 28.7 7 Norte 20 Norte 0 -- -- 32
2019-08-15 14:00:00 27.3 8 Oeste 22 Oeste 0 -- -- 39
2019-08-15 13:00:00 25.7 5 Sudoeste 12 Este 0 -- -- 44
2019-08-15 12:00:00 24.1 6 Sudeste 21 Este 0 -- -- 48
2019-08-15 11:00:00 21.5 9 Este 17 Este 0 -- -- 56
2019-08-15 10:00:00 19.9 7 Este 16 Este 0 -- -- 62
2019-08-15 09:00:00 16.5 4 Sudeste 12 Este 0 -- -- 72
2019-08-15 08:00:00 11.9 3 Sudeste 5 Este 0 -- -- 81
2019-08-15 07:00:00 9.9 0 Calma 8 Noroeste 0 -- -- 84
2019-08-15 06:00:00 9.5 2 Este 5 Sudeste 0 -- -- 80
2019-08-15 05:00:00 9.8 3 Sudeste 5 Sur 0 -- -- 78
2019-08-15 04:00:00 10.9 0 Calma 3 Sur 0 -- -- 72
2019-08-15 03:00:00 11.4 3 Sudeste 7 Este 0 -- -- 74
2019-08-15 02:00:00 12.9 2 Nordeste 7 Este 0 -- -- 69
2019-08-15 01:00:00 15 3 Este 5 Nordeste 0 -- -- 64
2019-08-15 00:00:00 17.8 3 Este 13 Nordeste 0 -- -- 58
2019-08-14 23:00:00 19.5 11 Nordeste 27 Nordeste 0 -- -- 53
2019-08-14 22:00:00 21.9 15 Nordeste 23 Nordeste 0 -- -- 44
2019-08-14 21:00:00 26.2 9 Oeste 24 Oeste 0 -- -- 26
2019-08-14 20:00:00 29.3 15 Oeste 30 Oeste 0 -- -- 22
2019-08-14 19:00:00 30.1 19 Oeste 33 Oeste 0 -- -- 21
2019-08-14 18:00:00 30.2 22 Oeste 35 Oeste 0 -- -- 21
2019-08-14 17:00:00 30.1 15 Oeste 33 Oeste 0 -- -- 21
2019-08-14 16:00:00 29.1 18 Oeste 32 Oeste 0 -- -- 23
2019-08-14 15:00:00 27.8 9 Oeste 24 Oeste 0 -- -- 25
2019-08-14 14:00:00 27.6 12 Oeste 28 Oeste 0 -- -- 25
2019-08-14 13:00:00 25.9 12 Oeste 25 Oeste 0 -- -- 27
2019-08-14 12:00:00 23.8 10 Noroeste 17 Oeste 0 -- -- 30
2019-08-14 11:00:00 21.1 6 Oeste 10 Oeste 0 -- -- 39
2019-08-14 10:00:00 17.1 4 Oeste 6 Oeste 0 -- -- 50
2019-08-14 09:00:00 12.2 0 Calma 6 Este 0 -- -- 64
2019-08-14 08:00:00 5.9 4 Este 6 Nordeste 0 -- -- 83
2019-08-14 07:00:00 4.3 0 Calma 4 Nordeste 0 -- -- 85
2019-08-14 06:00:00 5.3 0 Calma 5 Este 0 -- -- 85
2019-08-14 05:00:00 6.2 2 Este 6 Nordeste 0 -- -- 81
2019-08-14 04:00:00 6.5 3 Este 5 Este 0 -- -- 78
2019-08-14 03:00:00 8.2 3 Este 5 Este 0 -- -- 75
2019-08-14 02:00:00 9.8 4 Este 8 Sudeste 0 -- -- 71
2019-08-14 01:00:00 11.5 2 Sudeste 8 Este 0 -- -- 68
2019-08-14 00:00:00 14 5 Sudeste 23 Nordeste 0 -- -- 60
2019-08-13 23:00:00 15.9 15 Nordeste 26 Nordeste 0 -- -- 55
2019-08-13 22:00:00 17.2 14 Nordeste 23 Nordeste 0 -- -- 48
2019-08-13 21:00:00 20.2 14 Nordeste 30 Norte 0 -- -- 38
2019-08-13 20:00:00 24.9 17 Noroeste 27 Oeste 0 -- -- 25
2019-08-13 19:00:00 26.2 17 Oeste 27 Oeste 0 -- -- 16
2019-08-13 18:00:00 26.1 18 Oeste 30 Oeste 0 -- -- 17
2019-08-13 17:00:00 25.5 12 Oeste 24 Noroeste 0 -- -- 20
2019-08-13 16:00:00 25.1 9 Oeste 30 Noroeste 0 -- -- 20
2019-08-13 15:00:00 23.5 5 Sudoeste 23 Noroeste 0 -- -- 22
2019-08-13 14:00:00 22.6 10 Oeste 19 Oeste 0 -- -- 24
2019-08-13 13:00:00 21.1 8 Oeste 14 Norte 0 -- -- 33
2019-08-13 12:00:00 19.3 6 Norte 14 Este 0 -- -- 36
2019-08-13 11:00:00 17.4 6 Nordeste 19 Este 0 -- -- 42
2019-08-13 10:00:00 15 13 Nordeste 19 Este 0 -- -- 51
2019-08-13 09:00:00 11.2 2 Este 9 Este 0 -- -- 64
2019-08-13 08:00:00 10 4 Sudeste 7 Sudeste 0 -- -- 66
2019-08-13 07:00:00 10.1 5 Sudeste 9 Este 0 -- -- 68
2019-08-13 06:00:00 8.9 3 Sur 5 Noroeste 0 -- -- 74
2019-08-13 05:00:00 9.4 2 Este 6 Nordeste 0 -- -- 72
2019-08-13 04:00:00 9.6 4 Nordeste 8 Norte 0 -- -- 72
2019-08-13 03:00:00 10.8 4 Nordeste 18 Nordeste 0 -- -- 70
2019-08-13 02:00:00 11.7 9 Nordeste 22 Nordeste 0 -- -- 68
2019-08-13 01:00:00 12 10 Sudeste 32 Nordeste 0 -- -- 67
2019-08-13 00:00:00 12.3 19 Nordeste 41 Norte 0 -- -- 66
2019-08-12 23:00:00 12.9 32 Norte 49 Norte 0 -- -- 65
2019-08-12 22:00:00 14.5 30 Norte 57 Norte 0 -- -- 57
2019-08-12 21:00:00 16.6 30 Norte 45 Nordeste 0 -- -- 45
2019-08-12 20:00:00 19.1 22 Nordeste 34 Nordeste 0 -- -- 37
2019-08-12 19:00:00 22.4 18 Nordeste 31 Nordeste 0 -- -- 30
2019-08-12 18:00:00 22.7 17 Nordeste 28 Nordeste 0 -- -- 29
2019-08-12 17:00:00 23.5 13 Norte 26 Norte 0 -- -- 26
2019-08-12 16:00:00 22.9 12 Norte 30 Norte 0 -- -- 26
2019-08-12 15:00:00 21.9 16 Norte 33 Nordeste 0 -- -- 29
2019-08-12 14:00:00 20.8 15 Nordeste 30 Norte 0 -- -- 34
2019-08-12 13:00:00 19.7 11 Noroeste 26 Noroeste 0 -- -- 39
2019-08-12 12:00:00 17.7 14 Noroeste 24 Noroeste 0 -- -- 49
2019-08-12 11:00:00 15.8 12 Noroeste 19 Noroeste 0 -- -- 61
2019-08-12 10:00:00 13.1 7 Oeste 19 Noroeste 0 -- -- 76
2019-08-12 09:00:00 10.8 12 Noroeste 18 Noroeste 0 -- -- 86
2019-08-12 08:00:00 8.6 0 Calma -- -- 0 -- -- 95
2019-08-12 07:00:00 8.2 0 Calma 7 Oeste 0 -- -- 97
2019-08-12 06:00:00 7.8 0 Calma 3 Noroeste 0 -- -- 94
2019-08-12 05:00:00 9.5 3 Oeste 19 Noroeste 0 -- -- 92
2019-08-12 04:00:00 11.4 6 Oeste 24 Norte 0 -- -- 86
2019-08-12 03:00:00 12.5 13 Nordeste 24 Nordeste 0 -- -- 82
2019-08-12 02:00:00 13.1 14 Nordeste 25 Nordeste 0 -- -- 82
2019-08-12 01:00:00 13.8 15 Nordeste 28 Nordeste 0 -- -- 79
2019-08-12 00:00:00 14.8 18 Nordeste 32 Nordeste 0 -- -- 74
2019-08-11 23:00:00 16.3 19 Nordeste 30 Nordeste 0 -- -- 68
2019-08-11 22:00:00 18 18 Nordeste 26 Nordeste 0 -- -- 61
2019-08-11 21:00:00 21.3 13 Noroeste 28 Noroeste 0 -- -- 40
2019-08-11 20:00:00 23.1 18 Oeste 34 Noroeste 0 -- -- 37
2019-08-11 19:00:00 24.9 22 Oeste 33 Oeste 0 -- -- 34
2019-08-11 18:00:00 26.5 20 Oeste 31 Oeste 0 -- -- 33
2019-08-11 17:00:00 27 23 Oeste 35 Oeste 0 -- -- 31
2019-08-11 16:00:00 27.7 14 Oeste 31 Oeste 0 -- -- 30
2019-08-11 15:00:00 26.8 14 Noroeste 31 Noroeste 0 -- -- 30
2019-08-11 14:00:00 26.7 12 Oeste 26 Oeste 0 -- -- 30
2019-08-11 13:00:00 25 8 Oeste 24 Sudoeste 0 -- -- 35
2019-08-11 12:00:00 24.1 6 Oeste 16 Noroeste 0 -- -- 37
2019-08-11 11:00:00 20.6 6 Noroeste 19 Oeste 0 -- -- 53
2019-08-11 10:00:00 18.7 14 Oeste 21 Oeste 0 -- -- 59
2019-08-11 09:00:00 16.4 5 Sudoeste 10 Oeste 0 -- -- 73
2019-08-11 08:00:00 16 11 Oeste 31 Oeste 0 -- -- 72
2019-08-11 07:00:00 13.6 7 Oeste 17 Oeste 0 -- -- 89
2019-08-11 06:00:00 14.1 6 Oeste 17 Oeste 0 -- -- 87
2019-08-11 05:00:00 13.8 6 Oeste 9 Oeste 0 -- -- 79
2019-08-11 04:00:00 14.4 2 Oeste 8 Noroeste 0 -- -- 75
2019-08-11 03:00:00 16 4 Oeste 6 Oeste 0 -- -- 74
2019-08-11 02:00:00 16.2 3 Este 9 Nordeste 0 -- -- 72
2019-08-11 01:00:00 14.7 0 Calma 5 Noroeste 0 -- -- 70
2019-08-11 00:00:00 16.3 6 Noroeste 10 Este 0 -- -- 65
2019-08-10 23:00:00 18.8 4 Noroeste 17 Sudeste 0 -- -- 48
2019-08-10 22:00:00 23.8 8 Sudoeste 12 Sur 0 -- -- 28
2019-08-10 21:00:00 24.9 6 Sudoeste 24 Sur 0 -- -- 28
2019-08-10 20:00:00 26.4 15 Sudoeste 32 Sudoeste 0 -- -- 26
2019-08-10 19:00:00 27.5 17 Sudoeste 31 Sudoeste 0 -- -- 26
2019-08-10 18:00:00 27.4 6 Oeste 13 Norte 0 -- -- 35
2019-08-10 17:00:00 26.6 7 Noroeste 13 Noroeste 0 -- -- 38
2019-08-10 16:00:00 26.5 7 Oeste 20 Norte 0 -- -- 40
2019-08-10 15:00:00 26.1 6 Oeste 21 Oeste 0 -- -- 43
2019-08-10 14:00:00 24.8 8 Noroeste 21 Noroeste 0 -- -- 47
2019-08-10 13:00:00 21.6 8 Noroeste 27 Oeste 0 -- -- 57
2019-08-10 12:00:00 21.3 8 Noroeste 24 Oeste 0 -- -- 59
2019-08-10 11:00:00 19.6 9 Oeste 18 Noroeste 0 -- -- 63
2019-08-10 10:00:00 17.5 10 Oeste 15 Oeste 0 -- -- 76
2019-08-10 09:00:00 15 8 Oeste 12 Oeste 0 -- -- 90
2019-08-10 08:00:00 12.1 2 Oeste 5 Noroeste 0 -- -- 98
2019-08-10 07:00:00 9.7 4 Noroeste 5 Noroeste 0 -- -- 98
2019-08-10 06:00:00 11 2 Noroeste 6 Noroeste 0 -- -- 96
2019-08-10 05:00:00 12.3 2 Noroeste 10 Oeste 0 -- -- 95
2019-08-10 04:00:00 13.5 6 Oeste 15 Oeste 0 -- -- 94
2019-08-10 03:00:00 14.9 10 Oeste 15 Oeste 0 -- -- 90
2019-08-10 02:00:00 15.7 10 Oeste 15 Oeste 0 -- -- 88
2019-08-10 01:00:00 14.9 6 Oeste 13 Oeste 0 -- -- 89
2019-08-10 00:00:00 15.4 7 Oeste 11 Oeste 0 -- -- 84
2019-08-09 23:00:00 16 8 Oeste 23 Noroeste 0 -- -- 80
2019-08-09 22:00:00 17.8 18 Oeste 30 Oeste 0 -- -- 74
2019-08-09 21:00:00 19.1 15 Oeste 48 Oeste 0 -- -- 87
2019-08-09 20:00:00 22.5 13 Oeste 37 Oeste 0 -- -- 71
2019-08-09 19:00:00 24.7 13 Noroeste 38 Oeste 0 -- -- 60
2019-08-09 18:00:00 28.6 26 Sudoeste 47 Sudoeste 0 -- -- 48
2019-08-09 17:00:00 30.8 25 Sudoeste 44 Sur 0 -- -- 40
2019-08-09 16:00:00 30 24 Sudoeste 46 Sudoeste 0 -- -- 41
2019-08-09 15:00:00 29.8 22 Sudoeste 44 Sudoeste 0 -- -- 41
2019-08-09 14:00:00 29.3 20 Sudoeste 42 Sur 0 -- -- 39
2019-08-09 13:00:00 27.9 26 Sudoeste 42 Sur 0 -- -- 42
2019-08-09 12:00:00 27.1 24 Sudoeste 42 Sur 0 -- -- 43
2019-08-09 11:00:00 25.4 26 Sudoeste 48 Sur 0 -- -- 47
2019-08-09 10:00:00 23.2 21 Sudoeste 39 Sudoeste 0 -- -- 53
2019-08-09 09:00:00 21.4 8 Oeste 11 Sudoeste 0 -- -- 55
2019-08-09 08:00:00 14.9 0 Calma 8 Nordeste 0 -- -- 73
2019-08-09 07:00:00 13.1 4 Nordeste 9 Nordeste 0 -- -- 80
2019-08-09 06:00:00 13.4 4 Nordeste 12 Nordeste 0 -- -- 76
2019-08-09 05:00:00 14.4 5 Este 8 Este 0 -- -- 69
2019-08-09 04:00:00 14.9 3 Este 6 Este 0 -- -- 67
2019-08-09 03:00:00 16.6 2 Sudeste 5 Sur 0 -- -- 63
2019-08-09 02:00:00 18.7 0 Calma 11 Sudoeste 0 -- -- 56
2019-08-09 01:00:00 22.3 9 Sudoeste 20 Sudoeste 0 -- -- 47
2019-08-09 00:00:00 23.1 8 Sudoeste 16 Sur 0 -- -- 44
2019-08-08 23:00:00 23.9 6 Sur 19 Sudoeste 0 -- -- 41
2019-08-08 22:00:00 25.7 13 Sudoeste 27 Sur 0 -- -- 38
2019-08-08 21:00:00 27.6 19 Sudoeste 41 Sur 0 -- -- 38
2019-08-08 20:00:00 29.8 22 Sudoeste 42 Sudoeste 0 -- -- 36
2019-08-08 19:00:00 30.8 24 Sudoeste 41 Sudoeste 0 -- -- 35
2019-08-08 18:00:00 31 20 Sur 38 Sur 0 -- -- 34
2019-08-08 17:00:00 31.5 20 Sudoeste 35 Sudoeste 0 -- -- 33
2019-08-08 16:00:00 30.7 14 Sudoeste 32 Sur 0 -- -- 34
2019-08-08 15:00:00 29.5 14 Sur 31 Sudoeste 0 -- -- 36
2019-08-08 14:00:00 29.1 10 Sur 28 Sudoeste 0 -- -- 37
2019-08-08 13:00:00 27.6 10 Sudoeste 23 Sur 0 -- -- 39
2019-08-08 12:00:00 26.6 9 Oeste 21 Oeste 0 -- -- 40
2019-08-08 11:00:00 24 12 Oeste 24 Oeste 0 -- -- 46
2019-08-08 10:00:00 21.8 11 Oeste 19 Oeste 0 -- -- 55
2019-08-08 09:00:00 18.7 4 Noroeste 7 Oeste 0 -- -- 63
2019-08-08 08:00:00 14 4 Este 7 Nordeste 0 -- -- 78
2019-08-08 07:00:00 10.8 4 Este 7 Nordeste 0 -- -- 87
2019-08-08 06:00:00 10.8 4 Este 7 Nordeste 0 -- -- 86
2019-08-08 05:00:00 11.5 4 Nordeste 7 Nordeste 0 -- -- 84
2019-08-08 04:00:00 12.1 0 Calma 6 Este 0 -- -- 81
2019-08-08 03:00:00 12.3 6 Este 7 Este 0 -- -- 81
2019-08-08 02:00:00 12.7 4 Este 8 Nordeste 0 -- -- 78
2019-08-08 01:00:00 13.6 3 Este 6 Nordeste 0 -- -- 76
2019-08-08 00:00:00 15.5 2 Sur 4 Este 0 -- -- 70
2019-08-07 23:00:00 17.4 0 Calma 6 Oeste 0 -- -- 64
2019-08-07 22:00:00 20.6 4 Oeste 19 Sudoeste 0 -- -- 52
2019-08-07 21:00:00 22.5 12 Sudoeste 30 Sudoeste 0 -- -- 46
2019-08-07 20:00:00 22.6 13 Sudoeste 32 Sudoeste 0 -- -- 44
2019-08-07 19:00:00 23.2 19 Sudoeste 44 Sudoeste 0 -- -- 43
2019-08-07 18:00:00 24.9 18 Sudoeste 36 Sur 0 -- -- 38
2019-08-07 17:00:00 23.9 18 Sudoeste 31 Sudoeste 0 -- -- 40
2019-08-07 16:00:00 23.3 10 Oeste 30 Oeste 0.2 -- -- 59
2019-08-07 15:00:00 23 18 Oeste 31 Oeste 0 -- -- 54
2019-08-07 14:00:00 27.3 12 Oeste 27 Noroeste 0 -- -- 37
2019-08-07 13:00:00 27.7 15 Oeste 26 Oeste 0 -- -- 37
2019-08-07 12:00:00 26.4 14 Oeste 25 Oeste 0 -- -- 38
2019-08-07 11:00:00 25.1 8 Oeste 21 Oeste 0 -- -- 43
2019-08-07 10:00:00 23 13 Oeste 19 Noroeste 0 -- -- 49
2019-08-07 09:00:00 19.8 4 Noroeste 6 Noroeste 0 -- -- 62
2019-08-07 08:00:00 16.2 3 Noroeste 7 Oeste 0 -- -- 69
2019-08-07 07:00:00 15.9 0 Calma 8 Oeste 0 -- -- 65
2019-08-07 06:00:00 17 4 Oeste 8 Oeste 0 -- -- 59
2019-08-07 05:00:00 17.9 3 Oeste 7 Oeste 0 -- -- 62
2019-08-07 04:00:00 19.2 5 Oeste 11 Norte 0 -- -- 64
2019-08-07 03:00:00 19.6 2 Norte 9 Oeste 0 -- -- 59
2019-08-07 02:00:00 19.3 9 Oeste 13 Oeste 0 -- -- 54
2019-08-07 01:00:00 19.3 5 Oeste 16 Sudoeste 0 -- -- 39
2019-08-07 00:00:00 24.3 12 Sudoeste 19 Oeste 0 -- -- 27
2019-08-06 23:00:00 23.5 8 Sudoeste 20 Oeste 0 -- -- 24
2019-08-06 22:00:00 24.9 10 Sudoeste 14 Sudoeste 0 -- -- 23
2019-08-06 21:00:00 27.6 10 Sudoeste 27 Sudoeste 0 -- -- 19
2019-08-06 20:00:00 30.1 19 Sudoeste 33 Sudoeste 0 -- -- 17
2019-08-06 19:00:00 33 21 Sudoeste 36 Sur 0 -- -- 17
2019-08-06 18:00:00 33 18 Sudoeste 37 Sudoeste 0 -- -- 18
2019-08-06 17:00:00 33.4 13 Sudoeste 32 Sudoeste 0 -- -- 18
2019-08-06 16:00:00 32.8 18 Sudoeste 36 Sudoeste 0 -- -- 18
2019-08-06 15:00:00 32.2 15 Sudoeste 33 Sudoeste 0 -- -- 19
2019-08-06 14:00:00 31.4 16 Sudoeste 32 Sudoeste 0 -- -- 19
2019-08-06 13:00:00 30.8 16 Sudoeste 28 Sur 0 -- -- 21
2019-08-06 12:00:00 28.7 10 Oeste 18 Oeste 0 -- -- 32
2019-08-06 11:00:00 26.2 9 Oeste 18 Oeste 0 -- -- 36
2019-08-06 10:00:00 22.2 12 Oeste 16 Oeste 0 -- -- 42
2019-08-06 09:00:00 18 5 Oeste 9 Oeste 0 -- -- 49
2019-08-06 08:00:00 12.5 0 Calma 7 Nordeste 0 -- -- 63
2019-08-06 07:00:00 11.1 3 Nordeste 6 Este 0 -- -- 65
2019-08-06 06:00:00 12.7 0 Calma 10 Nordeste 0 -- -- 55
2019-08-06 05:00:00 12.1 6 Este 10 Este 0 -- -- 53
2019-08-06 04:00:00 12.9 3 Este 8 Nordeste 0 -- -- 51
2019-08-06 03:00:00 14.2 3 Este 8 Este 0 -- -- 47
2019-08-06 02:00:00 16.5 5 Este 9 Sudoeste 0 -- -- 39
2019-08-06 01:00:00 18.3 4 Este 12 Este 0 -- -- 34
2019-08-06 00:00:00 20.6 6 Este 20 Sudoeste 0 -- -- 30
2019-08-05 23:00:00 25.5 13 Sudoeste 19 Sudoeste 0 -- -- 23
2019-08-05 22:00:00 24.3 7 Sudoeste 11 Sur 0 -- -- 27
2019-08-05 21:00:00 29.1 6 Sur 22 Sur 0 -- -- 21
2019-08-05 20:00:00 32 15 Sur 27 Sur 0 -- -- 19
2019-08-05 19:00:00 33.5 10 Sur 29 Sur 0 -- -- 18
2019-08-05 18:00:00 33.5 15 Sur 34 Sur 0 -- -- 17
2019-08-05 17:00:00 33.9 13 Sudoeste 33 Sudoeste 0 -- -- 17
2019-08-05 16:00:00 33.2 12 Sur 36 Sur 0 -- -- 17
2019-08-05 15:00:00 32.4 17 Sudoeste 32 Sudoeste 0 -- -- 17
2019-08-05 14:00:00 31.9 15 Sudoeste 29 Sur 0 -- -- 20
2019-08-05 13:00:00 30.7 9 Sur 19 Sudoeste 0 -- -- 26
2019-08-05 12:00:00 28.4 8 Sudoeste 15 Oeste 0 -- -- 31
2019-08-05 11:00:00 25.9 8 Oeste 13 Oeste 0 -- -- 35
2019-08-05 10:00:00 23.9 3 Sudoeste 6 Oeste 0 -- -- 45
2019-08-05 09:00:00 18.5 4 Nordeste 6 Este 0 -- -- 47
2019-08-05 08:00:00 12.4 4 Este 9 Este 0 -- -- 58
2019-08-05 07:00:00 10.7 3 Este 6 Este 0 -- -- 61
2019-08-05 06:00:00 11.2 4 Nordeste 10 Nordeste 0 -- -- 55
2019-08-05 05:00:00 11.9 2 Nordeste 6 Sur 0 -- -- 51
2019-08-05 04:00:00 13.8 3 Este 5 Nordeste 0 -- -- 47
2019-08-05 03:00:00 14.9 4 Nordeste 8 Este 0 -- -- 42
2019-08-05 02:00:00 15.4 3 Nordeste 8 Este 0 -- -- 41
2019-08-05 01:00:00 16.2 4 Este 10 Este 0 -- -- 38
2019-08-05 00:00:00 20 0 Calma 19 Sur 0 -- -- 30
2019-08-04 23:00:00 22.8 10 Sudoeste 14 Sudoeste 0 -- -- 27
2019-08-04 22:00:00 24 6 Sur 15 Sudoeste 0 -- -- 25
2019-08-04 21:00:00 29 8 Sudoeste 22 Sudoeste 0 -- -- 19
2019-08-04 20:00:00 31.9 14 Sur 27 Sur 0 -- -- 17
2019-08-04 19:00:00 32.5 15 Sur 35 Sudoeste 0 -- -- 18
2019-08-04 18:00:00 33.4 15 Sur 37 Sur 0 -- -- 16
2019-08-04 17:00:00 33.3 15 Sudoeste 38 Sur 0 -- -- 16
2019-08-04 16:00:00 32.8 18 Sudoeste 39 Sur 0 -- -- 17
2019-08-04 15:00:00 32.4 24 Sudoeste 43 Sur 0 -- -- 18
2019-08-04 14:00:00 32.1 17 Sudoeste 37 Sur 0 -- -- 20
2019-08-04 13:00:00 31.2 8 Oeste 18 Sudoeste 0 -- -- 28
2019-08-04 12:00:00 28.4 6 Sudoeste 15 Sudoeste 0 -- -- 33
2019-08-04 11:00:00 25.4 5 Oeste 14 Sudoeste 0 -- -- 37
2019-08-04 10:00:00 23.4 6 Oeste 12 Oeste 0 -- -- 39
2019-08-04 09:00:00 18.8 0 Calma 6 Nordeste 0 -- -- 47
2019-08-04 08:00:00 11.8 0 Calma 8 Este 0 -- -- 67
2019-08-04 07:00:00 10.1 5 Este 6 Este 0 -- -- 64
2019-08-04 06:00:00 10.8 5 Este 7 Este 0 -- -- 59
2019-08-04 05:00:00 12 0 Calma 8 Nordeste 0 -- -- 56
2019-08-04 04:00:00 12.9 3 Sudeste 5 Sudeste 0 -- -- 54
2019-08-04 03:00:00 14.9 3 Este 9 Oeste 0 -- -- 43
2019-08-04 02:00:00 16 0 Calma 12 Sudeste 0 -- -- 40
2019-08-04 01:00:00 17.6 3 Este 18 Este 0 -- -- 31
2019-08-04 00:00:00 18.8 5 Este 14 Noroeste 0 -- -- 29
2019-08-03 23:00:00 23.2 10 Sur 16 Sur 0 -- -- 22
2019-08-03 22:00:00 24.7 7 Sudoeste 13 Sur 0 -- -- 20
2019-08-03 21:00:00 28.3 8 Sudoeste 26 Sur 0 -- -- 19
2019-08-03 20:00:00 32.1 15 Sur 30 Sudoeste 0 -- -- 15
2019-08-03 19:00:00 33.4 12 Sudoeste 26 Sur 0 -- -- 17
2019-08-03 18:00:00 34.2 12 Sudoeste 29 Sudoeste 0 -- -- 16
2019-08-03 17:00:00 33.6 17 Sudoeste 32 Sudoeste 0 -- -- 16
2019-08-03 16:00:00 33.3 14 Sur 34 Sudeste 0 -- -- 17
2019-08-03 15:00:00 32.8 17 Sur 38 Sur 0 -- -- 19
2019-08-03 14:00:00 32.9 15 Sudoeste 28 Sudoeste 0 -- -- 20
2019-08-03 13:00:00 31.2 8 Sudeste 21 Sudeste 0 -- -- 31
2019-08-03 12:00:00 28.2 10 Este 19 Sudeste 0 -- -- 39
2019-08-03 11:00:00 25.7 10 Sudeste 21 Este 0 -- -- 44
2019-08-03 10:00:00 23.5 11 Sudeste 20 Este 0 -- -- 48
2019-08-03 09:00:00 20.9 8 Sudeste 15 Sudeste 0 -- -- 52
2019-08-03 08:00:00 14.3 3 Este 10 Sudeste 0 -- -- 69
2019-08-03 07:00:00 11.2 3 Este -- -- 0 -- -- 75
2019-08-03 06:00:00 11.8 4 Este 6 Este 0 -- -- 73
2019-08-03 05:00:00 12.8 0 Calma 6 Este 0 -- -- 74
2019-08-03 04:00:00 14.1 4 Este 9 Este 0 -- -- 66
2019-08-03 03:00:00 16.4 0 Calma 11 Nordeste 0 -- -- 60
2019-08-03 02:00:00 18.1 9 Nordeste 15 Este 0 -- -- 55
2019-08-03 01:00:00 19 9 Este 18 Nordeste 0 -- -- 52
2019-08-03 00:00:00 20.5 12 Nordeste 21 Nordeste 0 -- -- 48
2019-08-02 23:00:00 21.7 10 Nordeste 19 Nordeste 0 -- -- 48
2019-08-02 22:00:00 23.5 12 Nordeste 25 Nordeste 0 -- -- 45
2019-08-02 21:00:00 26.1 17 Nordeste 35 Este 0 -- -- 38
2019-08-02 20:00:00 29.9 23 Nordeste 38 Norte 0 -- -- 32
2019-08-02 19:00:00 33.2 6 Oeste 19 Oeste 0 -- -- 23
2019-08-02 18:00:00 32.7 6 Sudeste 22 Oeste 0 -- -- 23
2019-08-02 17:00:00 32.2 10 Oeste 23 Norte 0 -- -- 23
2019-08-02 16:00:00 31.6 6 Oeste 21 Oeste 0 -- -- 24
2019-08-02 15:00:00 31 10 Sudoeste 23 Oeste 0 -- -- 26
2019-08-02 14:00:00 29.6 10 Norte 18 Nordeste 0 -- -- 30
2019-08-02 13:00:00 28.4 7 Sudeste 15 Sudeste 0 -- -- 41
2019-08-02 12:00:00 26.3 7 Este 16 Sudeste 0 -- -- 49
2019-08-02 11:00:00 23.1 10 Sudeste 17 Este 0 -- -- 61
2019-08-02 10:00:00 20.7 6 Sudeste 12 Este 0 -- -- 71
2019-08-02 09:00:00 17.9 6 Este 9 Este 0 -- -- 83
2019-08-02 08:00:00 13.2 0 Calma 5 Este 0 -- -- 94
2019-08-02 07:00:00 13.5 4 Este 9 Este 0 -- -- 95
2019-08-02 06:00:00 12.4 4 Este 6 Este 0 -- -- 95
2019-08-02 05:00:00 13 0 Calma 4 Sudeste 0 -- -- 93
2019-08-02 04:00:00 14.3 2 Este 6 Nordeste 0 -- -- 92
2019-08-02 03:00:00 16 6 Este 9 Este 0 -- -- 88
2019-08-02 02:00:00 17.7 5 Sudeste 12 Este 0 -- -- 83
2019-08-02 01:00:00 18.5 3 Sudeste 26 Norte 0 -- -- 79
2019-08-02 00:00:00 20 17 Nordeste 26 Nordeste 0 -- -- 74
2019-08-01 23:00:00 20.7 20 Nordeste 30 Norte 0 -- -- 72
2019-08-01 22:00:00 22 13 Nordeste 31 Norte 0 -- -- 61
2019-08-01 21:00:00 24.7 10 Noroeste 32 Sudeste 0 -- -- 44
2019-08-01 20:00:00 25.3 17 Sudeste 45 Oeste 0.4 -- -- 32
2019-08-01 19:00:00 29 8 Noroeste 24 Noroeste 0 -- -- 25
2019-08-01 18:00:00 29.7 26 Noroeste 37 Noroeste 0 -- -- 25
2019-08-01 17:00:00 31.7 14 Oeste 30 Oeste 0 -- -- 29
2019-08-01 16:00:00 29.8 19 Oeste 31 Oeste 0 -- -- 34
2019-08-01 15:00:00 30.5 12 Sudeste 23 Este 0 -- -- 34
2019-08-01 14:00:00 28.9 11 Sudeste 22 Sur 0 -- -- 37
2019-08-01 13:00:00 28.2 8 Sur 21 Sudeste 0 -- -- 39
2019-08-01 12:00:00 25.9 9 Sur 23 Sur 0 -- -- 43
2019-08-01 11:00:00 23.2 8 Sudeste 19 Este 0 -- -- 52
2019-08-01 10:00:00 21.7 8 Sudeste 19 Este 0 -- -- 61
2019-08-01 09:00:00 19.6 8 Este 13 Este 0 -- -- 74
2019-08-01 08:00:00 17.3 5 Este 11 Sudeste 0 -- -- 85
2019-08-01 07:00:00 16.8 8 Este 21 Este 0 -- -- 86
2019-08-01 06:00:00 17.8 9 Este 17 Este 0 -- -- 82
2019-08-01 05:00:00 18.5 9 Sudeste 16 Este 0 -- -- 79
2019-08-01 04:00:00 18.8 4 Sudeste 14 Sudeste 0 -- -- 75
2019-08-01 03:00:00 19.3 6 Este 26 Este 0 -- -- 74
2019-08-01 02:00:00 20.9 13 Este 31 Este 0 -- -- 67
2019-08-01 01:00:00 21.3 20 Este 32 Este 0 -- -- 62
2019-08-01 00:00:00 21.5 19 Este 33 Este 0 -- -- 53
2019-07-31 23:00:00 22.1 21 Este 36 Este 0 -- -- 47
2019-07-31 22:00:00 22.9 18 Este 36 Este 0 -- -- 42
2019-07-31 21:00:00 24 18 Este 32 Este 0 -- -- 39
2019-07-31 20:00:00 26.4 22 Este 39 Sudeste 0 -- -- 35
2019-07-31 19:00:00 27.1 18 Sudeste 30 Sudeste 0 -- -- 35
2019-07-31 18:00:00 29.3 18 Este 32 Este 0 -- -- 32
2019-07-31 17:00:00 30.1 13 Este 29 Sudeste 0 -- -- 31
2019-07-31 16:00:00 29.2 11 Sudeste 24 Este 0 -- -- 31
2019-07-31 15:00:00 27.3 10 Sudeste 26 Este 0 -- -- 33
2019-07-31 14:00:00 26.1 10 Sudeste 26 Sudeste 0 -- -- 35
2019-07-31 13:00:00 23.4 13 Sudeste 25 Este 0 -- -- 40
2019-07-31 12:00:00 21.6 12 Este 23 Este 0 -- -- 42
2019-07-31 11:00:00 19.8 14 Este 24 Este 0 -- -- 42
2019-07-31 10:00:00 16.9 14 Este 22 Este 0 -- -- 51
2019-07-31 09:00:00 14.1 13 Este 25 Este 0 -- -- 62
2019-07-31 08:00:00 11.4 3 Sudeste 8 Este 0 -- -- 74
2019-07-31 07:00:00 10 4 Este 10 Nordeste 0 -- -- 77
2019-07-31 06:00:00 9.5 4 Este 10 Este 0 -- -- 79
2019-07-31 05:00:00 9.4 4 Este 9 Nordeste 0 -- -- 79
2019-07-31 04:00:00 9.5 6 Nordeste 13 Este 0 -- -- 79
2019-07-31 03:00:00 10.6 7 Nordeste 19 Nordeste 0 -- -- 76
2019-07-31 02:00:00 11.4 7 Nordeste 24 Nordeste 0 -- -- 74
2019-07-31 01:00:00 12.2 13 Nordeste 30 Nordeste 0 -- -- 71
2019-07-31 00:00:00 12.8 12 Nordeste 32 Nordeste 0 -- -- 69
2019-07-30 23:00:00 14.1 21 Nordeste 40 Nordeste 0 -- -- 64
2019-07-30 22:00:00 15.8 23 Nordeste 40 Nordeste 0 -- -- 56
2019-07-30 21:00:00 18.8 19 Nordeste 38 Nordeste 0 -- -- 45
2019-07-30 20:00:00 22.4 22 Nordeste 37 Nordeste 0 -- -- 38
2019-07-30 19:00:00 27.1 13 Oeste 27 Oeste 0 -- -- 26
2019-07-30 18:00:00 27.2 8 Sudoeste 22 Oeste 0 -- -- 21
2019-07-30 17:00:00 26.6 9 Oeste 26 Sudoeste 0 -- -- 22
2019-07-30 16:00:00 25.5 12 Noroeste 21 Noroeste 0 -- -- 25
2019-07-30 15:00:00 24.4 8 Oeste 19 Oeste 0 -- -- 32
2019-07-30 14:00:00 23.2 8 Sudoeste 17 Oeste 0 -- -- 32
2019-07-30 13:00:00 21.7 6 Norte 14 Norte 0 -- -- 39
2019-07-30 12:00:00 19.3 9 Norte 17 Norte 0 -- -- 48
2019-07-30 11:00:00 17.6 6 Norte 13 Norte 0 -- -- 55
2019-07-30 10:00:00 15.9 3 Noroeste 22 Oeste 0 -- -- 68
2019-07-30 09:00:00 13.5 10 Oeste 21 Noroeste 0 -- -- 78
2019-07-30 08:00:00 11.4 5 Oeste 10 Noroeste 0 -- -- 83
2019-07-30 07:00:00 9.4 0 Calma 8 Noroeste 0 -- -- 88
2019-07-30 06:00:00 11.1 7 Noroeste 17 Noroeste 0 -- -- 72
2019-07-30 05:00:00 12.7 12 Noroeste 21 Noroeste 0 -- -- 61
2019-07-30 04:00:00 14.2 17 Noroeste 26 Noroeste 0 -- -- 51
2019-07-30 03:00:00 12.2 5 Oeste 15 Oeste 0 -- -- 48
2019-07-30 02:00:00 12.8 8 Oeste 17 Noroeste 0 -- -- 47
2019-07-30 01:00:00 12.4 5 Oeste 11 Oeste 0 -- -- 47
2019-07-30 00:00:00 16.7 10 Oeste 16 Oeste 0 -- -- 39
2019-07-29 23:00:00 18.6 5 Oeste 21 Oeste 0 -- -- 35
2019-07-29 22:00:00 22.1 15 Oeste 26 Oeste 0 -- -- 35
2019-07-29 21:00:00 25.2 17 Oeste 33 Oeste 0 -- -- 35
2019-07-29 20:00:00 27.6 23 Oeste 33 Oeste 0 -- -- 28
2019-07-29 19:00:00 28.7 11 Oeste 35 Oeste 0 -- -- 24
2019-07-29 18:00:00 30.6 10 Noroeste 27 Sudoeste 0 -- -- 25
2019-07-29 17:00:00 29.4 13 Oeste 28 Noroeste 0 -- -- 27
2019-07-29 16:00:00 30.4 14 Oeste 36 Sur 0 -- -- 25
2019-07-29 15:00:00 28.9 13 Sur 33 Sudoeste 0 -- -- 26
2019-07-29 14:00:00 27.9 9 Noroeste 21 Noroeste 0 -- -- 26
2019-07-29 13:00:00 26.1 8 Noroeste 19 Noroeste 0 -- -- 28
2019-07-29 12:00:00 24 12 Oeste 25 Oeste 0 -- -- 33
2019-07-29 11:00:00 21.7 17 Oeste 24 Noroeste 0 -- -- 38
2019-07-29 10:00:00 18.2 6 Oeste 12 Oeste 0 -- -- 54
2019-07-29 09:00:00 14.1 11 Oeste 14 Oeste 0 -- -- 66
2019-07-29 08:00:00 9.3 3 Sudeste 5 Este 0 -- -- 81
2019-07-29 07:00:00 6.9 3 Este 5 Este 0 -- -- 86
2019-07-29 06:00:00 7.9 0 Calma 5 Este 0 -- -- 84
2019-07-29 05:00:00 8.4 4 Nordeste 6 Este 0 -- -- 82
2019-07-29 04:00:00 9.6 4 Nordeste 5 Nordeste 0 -- -- 78
2019-07-29 03:00:00 10.7 0 Calma 9 Este 0 -- -- 75
2019-07-29 02:00:00 12.6 7 Este 10 Este 0 -- -- 68
2019-07-29 01:00:00 15.5 8 Este 14 Este 0 -- -- 58
2019-07-29 00:00:00 13.2 4 Este 15 Este 0 -- -- 50
2019-07-28 23:00:00 14.5 2 Sudeste 13 Nordeste 0 -- -- 43
2019-07-28 22:00:00 18.2 0 Calma 13 Oeste 0 -- -- 33
2019-07-28 21:00:00 24.1 11 Noroeste 25 Noroeste 0 -- -- 23
2019-07-28 20:00:00 26.5 12 Oeste 29 Oeste 0 -- -- 21
2019-07-28 19:00:00 27.4 14 Oeste 29 Oeste 0 -- -- 21
2019-07-28 18:00:00 26.5 17 Noroeste 31 Oeste 0 -- -- 22
2019-07-28 17:00:00 26.4 15 Oeste 30 Oeste 0 -- -- 22
2019-07-28 16:00:00 25.3 11 Oeste 26 Oeste 0 -- -- 24
2019-07-28 15:00:00 23.5 10 Noroeste 29 Sudoeste 0 -- -- 30
2019-07-28 14:00:00 22.8 6 Sudeste 21 Noroeste 0 -- -- 36
2019-07-28 13:00:00 21.1 5 Oeste 15 Oeste 0 -- -- 41
2019-07-28 12:00:00 19.3 7 Oeste 15 Noroeste 0 -- -- 48
2019-07-28 11:00:00 17 7 Oeste 17 Oeste 0 -- -- 57
2019-07-28 10:00:00 14.2 11 Noroeste 19 Noroeste 0 -- -- 70
2019-07-28 09:00:00 11.7 7 Oeste 12 Noroeste 0 -- -- 79
2019-07-28 08:00:00 7.9 2 Nordeste 6 Noroeste 0 -- -- 93
2019-07-28 07:00:00 5.4 4 Noroeste 8 Norte 0 -- -- 93
2019-07-28 06:00:00 6 3 Nordeste 7 Noroeste 0 -- -- 94
2019-07-28 05:00:00 8 5 Noroeste 13 Noroeste 0 -- -- 84
2019-07-28 04:00:00 10.1 8 Sudoeste 12 Sudoeste 0 -- -- 85
2019-07-28 03:00:00 10.6 8 Norte 22 Norte 0 -- -- 81
2019-07-28 02:00:00 9.1 5 Nordeste 10 Norte 0 -- -- 86
2019-07-28 01:00:00 10.9 4 Oeste 9 Noroeste 0 -- -- 80
2019-07-28 00:00:00 12 5 Oeste 26 Norte 0 -- -- 78
2019-07-27 23:00:00 13.2 14 Norte 31 Norte 0 -- -- 74
2019-07-26 12:00:00 -- -- -- -- -- -- -- -- --
2019-07-26 11:00:00 19.9 10 Noroeste 26 Este 0.4 -- -- 77
2019-07-26 10:00:00 20.4 15 Este 28 Sudeste 0 -- -- 69
2019-07-26 09:00:00 18.5 9 Noroeste 14 Noroeste 0 -- -- 78
2019-07-26 08:00:00 18.6 4 Oeste 19 Norte 0 -- -- 79
2019-07-26 07:00:00 18.5 3 Sur 18 Oeste 0 -- -- 67
2019-07-26 06:00:00 19.9 7 Sur 21 Norte 0 -- -- 55
2019-07-26 05:00:00 19.5 10 Oeste 14 Noroeste 0 -- -- 53
2019-07-26 04:00:00 19.2 2 Sudeste 7 Noroeste 0 -- -- 49
2019-07-26 03:00:00 20.7 7 Oeste 22 Sudoeste 0 -- -- 44
2019-07-26 02:00:00 19.2 3 Este 6 Sudoeste 0 -- -- 54
2019-07-26 01:00:00 20.3 3 Sur 8 Este 0 -- -- 55
2019-07-26 00:00:00 22.5 3 Este 10 Este 0 -- -- 45
2019-07-25 23:00:00 25.8 6 Este 19 Este 0 -- -- 37
2019-07-25 22:00:00 25.1 5 Nordeste 18 Sudoeste 0 -- -- 32
2019-07-25 21:00:00 30.1 10 Sudoeste 30 Sudoeste 0 -- -- 24
2019-07-25 20:00:00 32.7 16 Sudoeste 34 Sudoeste 0 -- -- 23
2019-07-25 19:00:00 33.4 15 Sudoeste 41 Sudoeste 0 -- -- 22
2019-07-25 18:00:00 33.4 17 Sudoeste 43 Sudoeste 0 -- -- 23
2019-07-25 17:00:00 33.6 19 Sudoeste 42 Sur 0 -- -- 24
2019-07-25 16:00:00 33.3 21 Sudoeste 40 Oeste 0 -- -- 24
2019-07-25 15:00:00 32.9 19 Sudoeste 39 Sudoeste 0 -- -- 25
2019-07-25 14:00:00 32.9 19 Sudoeste 38 Sudoeste 0 -- -- 25
2019-07-25 13:00:00 32.9 11 Sur 31 Sur 0 -- -- 26
2019-07-25 12:00:00 30.6 10 Sur 24 Sur 0 -- -- 29
2019-07-25 11:00:00 28.5 8 Sur 16 Sudeste 0 -- -- 32
2019-07-25 10:00:00 26.2 8 Sur 12 Sur 0 -- -- 34
2019-07-25 09:00:00 22.9 4 Este 13 Nordeste 0 -- -- 41
2019-07-25 08:00:00 17.7 4 Este 9 Nordeste 0 -- -- 54
2019-07-25 07:00:00 15 4 Norte 9 Nordeste 0 -- -- 64
2019-07-25 06:00:00 16.3 6 Nordeste 12 Nordeste 0 -- -- 56
2019-07-25 05:00:00 16 0 Calma 8 Nordeste 0 -- -- 59
2019-07-25 04:00:00 16.9 5 Nordeste 10 Nordeste 0 -- -- 55
2019-07-25 03:00:00 17.2 3 Norte 9 Este 0 -- -- 53
2019-07-25 02:00:00 19.3 3 Norte 10 Este 0 -- -- 47
2019-07-25 01:00:00 21.9 0 Calma 12 Este 0 -- -- 40
2019-07-25 00:00:00 26.6 11 Sudeste 22 Este 0 -- -- 30
2019-07-24 23:00:00 27.5 15 Este 22 Este 0 -- -- 28
2019-07-24 22:00:00 27.1 8 Este 14 Este 0 -- -- 28
2019-07-24 21:00:00 31.3 8 Sudoeste 24 Sur 0 -- -- 23
2019-07-24 20:00:00 33.6 19 Sudoeste 32 Sudoeste 0 -- -- 20
2019-07-24 19:00:00 34.9 17 Sur 55 Sudeste 0 -- -- 18
2019-07-24 18:00:00 34.2 15 Sudoeste 33 Sur 0 -- -- 19
2019-07-24 17:00:00 34.1 12 Sudeste 36 Sur 0 -- -- 18
2019-07-24 16:00:00 34.6 15 Sur 45 Sur 0 -- -- 19
2019-07-24 15:00:00 33.3 12 Sur 38 Sudeste 0 -- -- 21
2019-07-24 14:00:00 33.9 9 Sur 27 Sudeste 0 -- -- 23
2019-07-24 13:00:00 32.9 10 Sur 31 Sur 0 -- -- 23
2019-07-24 12:00:00 30 12 Sur 22 Sur 0 -- -- 27
2019-07-24 11:00:00 26.6 9 Este 13 Este 0 -- -- 36
2019-07-24 10:00:00 25 2 Noroeste 5 Norte 0 -- -- 43
2019-07-24 09:00:00 20.6 0 Calma 3 Nordeste 0 -- -- 58
2019-07-24 08:00:00 16.9 0 Calma 8 Nordeste 0 -- -- 69
2019-07-24 07:00:00 15.9 3 Sudeste 8 Oeste 0 -- -- 71
2019-07-24 06:00:00 15.5 0 Calma 10 Nordeste 0 -- -- 69
2019-07-24 05:00:00 15.7 5 Este 10 Este 0 -- -- 67
2019-07-24 04:00:00 16.8 6 Este 9 Este 0 -- -- 63
2019-07-24 03:00:00 19.2 6 Este 10 Nordeste 0 -- -- 56
2019-07-24 02:00:00 18.2 4 Este 8 Nordeste 0 -- -- 60
2019-07-24 01:00:00 20 0 Calma 10 Sur 0 -- -- 50
2019-07-24 00:00:00 24.6 5 Sudeste 27 Sur 0 -- -- 41
2019-07-23 23:00:00 26.3 22 Sudoeste 44 Sudoeste 0 -- -- 35
2019-07-23 22:00:00 27.7 15 Este 32 Este 0 -- -- 28
2019-07-23 21:00:00 29.1 14 Este 42 Este 0 -- -- 27
2019-07-23 20:00:00 32.8 18 Este 40 Este 0 -- -- 24
2019-07-23 19:00:00 33.1 11 Sur 50 Sur 0 -- -- 21
2019-07-23 18:00:00 34.2 15 Sur 31 Sur 0 -- -- 21
2019-07-23 17:00:00 34.4 17 Sur 41 Sur 0 -- -- 20
2019-07-23 16:00:00 35 18 Sur 39 Sudeste 0 -- -- 20
2019-07-23 15:00:00 34.6 13 Sudeste 37 Sur 0 -- -- 20
2019-07-23 14:00:00 34 8 Sur 23 Sudeste 0 -- -- 22
2019-07-23 13:00:00 31.7 7 Este 19 Sur 0 -- -- 21
2019-07-23 12:00:00 29.6 5 Noroeste 17 Norte 0 -- -- 24
2019-07-23 11:00:00 28.1 7 Noroeste 17 Sudoeste 0 -- -- 25
2019-07-23 10:00:00 26.2 4 Sudoeste 14 Oeste 0 -- -- 32
2019-07-23 09:00:00 22 2 Sudoeste 5 Noroeste 0 -- -- 49
2019-07-23 08:00:00 16.2 0 Calma 10 Este 0 -- -- 72
2019-07-23 07:00:00 13.4 4 Este 10 Este 0 -- -- 75
2019-07-23 06:00:00 13.5 4 Este 9 Este 0 -- -- 77
2019-07-23 05:00:00 13.8 3 Este 8 Nordeste 0 -- -- 80
2019-07-23 04:00:00 14.3 5 Nordeste 8 Nordeste 0 -- -- 73
2019-07-23 03:00:00 16 7 Nordeste 9 Nordeste 0 -- -- 68
2019-07-23 02:00:00 17.9 6 Este 10 Nordeste 0 -- -- 61
2019-07-23 01:00:00 21.6 3 Nordeste 18 Sur 0 -- -- 47
2019-07-23 00:00:00 24.8 12 Sur 18 Sur 0 -- -- 39
2019-07-22 23:00:00 23 4 Este 17 Sudeste 0 -- -- 41
2019-07-22 22:00:00 27.9 9 Sudeste 18 Sudeste 0 -- -- 29
2019-07-22 21:00:00 31.8 14 Sudeste 35 Sudeste 0 -- -- 23
2019-07-22 20:00:00 34.4 11 Sudeste 22 Sur 0 -- -- 20
2019-07-22 19:00:00 35.3 12 Este 44 Este 0.2 -- -- 20
2019-07-22 18:00:00 34.3 18 Este 30 Nordeste 0 -- -- 24
2019-07-22 17:00:00 36.3 14 Este 25 Este 0 -- -- 19
2019-07-22 16:00:00 34.8 13 Sudeste 24 Este 0 -- -- 22
2019-07-22 15:00:00 33.9 10 Sudeste 26 Este 0 -- -- 24
2019-07-22 14:00:00 32.8 12 Este 25 Este 0 -- -- 23
2019-07-22 13:00:00 30.9 10 Sudeste 22 Este 0 -- -- 26
2019-07-22 12:00:00 29 11 Sudeste 18 Sudeste 0 -- -- 30
2019-07-22 11:00:00 26.3 10 Sudeste 17 Sudeste 0 -- -- 40
2019-07-22 10:00:00 23.7 11 Sudeste 16 Este 0 -- -- 48
2019-07-22 09:00:00 21.2 5 Este 9 Este 0 -- -- 62
2019-07-22 08:00:00 17 0 Calma 6 Nordeste 0 -- -- 78
2019-07-22 07:00:00 15.1 5 Este 7 Este 0 -- -- 88
2019-07-22 06:00:00 15.7 4 Nordeste 9 Este 0 -- -- 86
2019-07-22 05:00:00 16.5 0 Calma 10 Este 0 -- -- 87
2019-07-22 04:00:00 18.2 3 Este 12 Este 0 -- -- 78
2019-07-22 03:00:00 18 9 Este 14 Sudeste 0 -- -- 83
2019-07-22 02:00:00 21.2 12 Sudeste 27 Sudeste 0 -- -- 63
2019-07-22 01:00:00 22.7 14 Sudeste 26 Este 0 -- -- 57
2019-07-22 00:00:00 22.4 13 Nordeste 39 Este 3.4 -- -- 55
2019-07-21 23:00:00 24.5 10 Este 21 Este 0 -- -- 58
2019-07-21 22:00:00 27.2 14 Nordeste 22 Nordeste 0 -- -- 45
2019-07-21 21:00:00 28.2 10 Sudeste 29 Sudeste 0 -- -- 38
2019-07-21 20:00:00 29.8 17 Sudeste 49 Sudeste 0 -- -- 35
2019-07-21 19:00:00 30.7 32 Este 53 Este 0 -- -- 34
2019-07-21 18:00:00 32.8 13 Sudeste 30 Este 0 -- -- 29
2019-07-21 17:00:00 35.1 12 Sudeste 28 Sudeste 0 -- -- 27
2019-07-21 16:00:00 35.1 9 Este 32 Este 0 -- -- 26
2019-07-21 15:00:00 34.3 8 Este 24 Este 0 -- -- 28
2019-07-21 14:00:00 32.5 9 Sudeste 24 Este 0 -- -- 31
2019-07-21 13:00:00 29.9 10 Sudeste 23 Este 0 -- -- 35
2019-07-21 12:00:00 28 11 Sudeste 21 Este 0 -- -- 39
2019-07-21 11:00:00 25.3 12 Este 23 Este 0 -- -- 48
2019-07-21 10:00:00 21.7 15 Sudeste 24 Este 0 -- -- 60
2019-07-21 09:00:00 20.5 15 Sudeste 23 Este 0 -- -- 65
2019-07-21 08:00:00 19 10 Sudeste 17 Sudeste 0 -- -- 72
2019-07-21 07:00:00 17.4 5 Sudeste 11 Este 0 -- -- 79
2019-07-21 06:00:00 18.3 5 Este 16 Este 0 -- -- 75
2019-07-21 05:00:00 19.6 9 Este 22 Este 0 -- -- 71
2019-07-21 04:00:00 20.7 13 Sudeste 21 Sudeste 0 -- -- 67
2019-07-21 03:00:00 18 4 Sudeste 13 Nordeste 0 -- -- 77
2019-07-21 02:00:00 19.8 8 Este 13 Nordeste 0 -- -- 73
2019-07-21 01:00:00 21 3 Sudeste 20 Norte 0 -- -- 70
2019-07-21 00:00:00 22 6 Noroeste 12 Norte 0 -- -- 55
2019-07-20 23:00:00 24.8 3 Noroeste 24 Nordeste 0 -- -- 46
2019-07-20 22:00:00 26.1 6 Este 19 Norte 0 -- -- 42
2019-07-20 21:00:00 29.2 5 Sudoeste 26 Sudoeste 0 -- -- 31
2019-07-20 20:00:00 32.3 11 Sudoeste 38 Sudoeste 0 -- -- 24
2019-07-20 19:00:00 34.7 17 Sudoeste 36 Sudoeste 0 -- -- 23
2019-07-20 18:00:00 34.9 15 Sudoeste 33 Sur 0 -- -- 23
2019-07-20 17:00:00 34 16 Sudoeste 39 Sur 0 -- -- 24
2019-07-20 16:00:00 33.7 14 Sur 36 Sur 0 -- -- 24
2019-07-20 15:00:00 34.3 15 Sudoeste 26 Sudoeste 0 -- -- 23
2019-07-20 14:00:00 33.5 9 Sudoeste 32 Sudoeste 0 -- -- 26
2019-07-20 13:00:00 30.9 12 Sur 22 Sur 0 -- -- 30
2019-07-20 12:00:00 30.1 9 Sur 39 Sur 0 -- -- 33
2019-07-20 11:00:00 27.4 15 Sur 31 Sur 0 -- -- 37
2019-07-20 10:00:00 25.5 18 Sur 29 Sur 0 -- -- 42
2019-07-20 09:00:00 23.7 2 Este 18 Sur 0 -- -- 44
2019-07-20 08:00:00 21.7 8 Sur 19 Sudeste 0 -- -- 48
2019-07-20 07:00:00 17.2 5 Sudeste 10 Este 0 -- -- 61
2019-07-20 06:00:00 17.2 6 Norte 17 Sudoeste 0 -- -- 61
2019-07-20 05:00:00 18.1 4 Noroeste 11 Noroeste 0 -- -- 61
2019-07-20 04:00:00 20.3 4 Oeste 13 Sudoeste 0 -- -- 52
2019-07-20 03:00:00 22.2 9 Sudoeste 27 Sur 0 -- -- 45
2019-07-20 02:00:00 24.2 15 Sur 24 Sur 0 -- -- 37
2019-07-20 01:00:00 20.2 5 Sudeste 16 Noroeste 0 -- -- 58
2019-07-20 00:00:00 23.9 6 Sudeste 16 Sudeste 0 -- -- 45
2019-07-19 23:00:00 24.8 12 Sudeste 20 Sudeste 0 -- -- 40
2019-07-19 22:00:00 25.5 9 Este 28 Norte 0 -- -- 40
2019-07-19 21:00:00 27.9 14 Noroeste 34 Sudoeste 0 -- -- 35
2019-07-19 20:00:00 31 11 Sudoeste 26 Sudoeste 0 -- -- 24
2019-07-19 19:00:00 31.5 13 Sudoeste 28 Sudoeste 0 -- -- 24
2019-07-19 18:00:00 32.2 15 Sudoeste 36 Sudoeste 0 -- -- 24
2019-07-19 17:00:00 32.8 16 Sudoeste 35 Sur 0 -- -- 23
2019-07-19 16:00:00 33.3 18 Sur 41 Sudoeste 0 -- -- 25
2019-07-19 15:00:00 31.6 11 Sudeste 28 Este 0 -- -- 29
2019-07-19 14:00:00 31.3 10 Este 22 Este 0 -- -- 32
2019-07-19 13:00:00 29.9 6 Este 18 Este 0 -- -- 34
2019-07-19 12:00:00 27.1 7 Sudeste 25 Este 0 -- -- 38
2019-07-19 11:00:00 24.3 10 Sudeste 23 Este 0 -- -- 41
2019-07-19 10:00:00 22.5 11 Este 21 Este 0 -- -- 45
2019-07-19 09:00:00 19.8 6 Este 16 Este 0 -- -- 54
2019-07-19 08:00:00 14.1 0 Calma 6 Este 0 -- -- 76
2019-07-19 07:00:00 10.9 6 Nordeste 8 Este 0 -- -- 83
2019-07-19 06:00:00 11.6 3 Sudeste 3 Sudeste 0 -- -- 82
2019-07-19 05:00:00 12.4 0 Calma 5 Nordeste 0 -- -- 80
2019-07-19 04:00:00 13.8 3 Este 8 Este 0 -- -- 75
2019-07-19 03:00:00 15 4 Este 10 Nordeste 0 -- -- 70
2019-07-19 02:00:00 16.2 7 Nordeste 11 Nordeste 0 -- -- 66
2019-07-19 01:00:00 17.1 6 Este 15 Nordeste 0 -- -- 63
2019-07-19 00:00:00 18 8 Nordeste 20 Nordeste 0 -- -- 60